createdAt,value
2022-09-28T00:01:53.852Z,3.37
2022-09-28T00:04:43.330Z,3.63
2022-09-28T00:07:32.080Z,3.77
2022-09-28T00:10:22.483Z,3.60
2022-09-28T00:13:11.023Z,4.03
2022-09-28T00:16:06.904Z,3.83
2022-09-28T00:18:56.316Z,3.80
2022-09-28T00:21:44.662Z,3.80
2022-09-28T00:24:33.622Z,3.20
2022-09-28T00:27:24.012Z,3.80
2022-09-28T00:30:15.877Z,3.20
2022-09-28T00:33:04.802Z,3.47
2022-09-28T00:36:00.128Z,3.70
2022-09-28T00:38:49.071Z,3.47
2022-09-28T00:41:38.438Z,2.80
2022-09-28T00:44:39.687Z,2.50
2022-09-28T00:47:49.563Z,3.17
2022-09-28T00:50:40.277Z,3.40
2022-09-28T00:53:35.440Z,3.00
2022-09-28T00:56:29.062Z,2.73
2022-09-28T00:59:17.673Z,3.30
2022-09-28T01:02:06.661Z,3.20
2022-09-28T01:04:57.400Z,3.53
2022-09-28T01:07:48.844Z,3.17
2022-09-28T01:10:39.400Z,3.20
2022-09-28T01:13:30.909Z,4.13
2022-09-28T01:16:29.252Z,3.53
2022-09-28T01:19:44.415Z,3.60
2022-09-28T01:22:54.670Z,3.30
2022-09-28T01:25:52.437Z,4.20
2022-09-28T01:28:44.267Z,4.00
2022-09-28T01:31:35.047Z,3.60
2022-09-28T01:34:30.955Z,3.73
2022-09-28T01:37:22.355Z,4.67
2022-09-28T01:40:12.214Z,4.37
2022-09-28T01:43:05.966Z,5.40
2022-09-28T01:45:56.713Z,5.67
2022-09-28T01:48:50.694Z,7.57
2022-09-28T01:51:44.854Z,8.43
2022-09-28T01:54:37.133Z,9.20
2022-09-28T01:57:32.531Z,9.33
2022-09-28T02:00:24.322Z,9.93
2022-09-28T02:03:16.666Z,10.48
2022-09-28T02:06:13.079Z,9.67
2022-09-28T02:09:11.378Z,10.87
2022-09-28T02:12:11.046Z,10.57
2022-09-28T02:15:12.791Z,10.43
2022-09-28T02:18:01.370Z,10.57
2022-09-28T02:20:57.491Z,9.87
2022-09-28T02:23:52.412Z,10.80
2022-09-28T02:26:45.831Z,10.40
2022-09-28T02:29:34.407Z,11.47
2022-09-28T02:32:24.393Z,12.00
2022-09-28T02:35:15.591Z,12.07
2022-09-28T02:38:04.078Z,11.57
2022-09-28T02:41:03.285Z,11.50
2022-09-28T02:44:03.782Z,12.37
2022-09-28T02:46:59.268Z,11.77
2022-09-28T02:50:00.753Z,12.83
2022-09-28T02:53:19.921Z,11.37
2022-09-28T02:56:31.495Z,12.03
2022-09-28T02:59:33.395Z,11.60
2022-09-28T03:02:29.122Z,12.35
2022-09-28T03:05:23.899Z,13.20
2022-09-28T03:08:20.498Z,12.30
2022-09-28T03:11:17.262Z,13.40
2022-09-28T03:14:08.679Z,13.07
2022-09-28T03:17:20.785Z,12.87
2022-09-28T03:20:12.051Z,12.90
2022-09-28T03:23:23.158Z,12.50
2022-09-28T03:26:10.962Z,11.63
2022-09-28T03:28:59.354Z,12.27
2022-09-28T03:31:48.990Z,11.50
2022-09-28T03:34:37.478Z,12.63
2022-09-28T03:37:28.320Z,12.73
2022-09-28T03:40:16.602Z,11.77
2022-09-28T03:43:05.379Z,11.90
2022-09-28T03:45:55.672Z,12.40
2022-09-28T03:48:44.938Z,12.33
2022-09-28T03:51:33.284Z,11.73
2022-09-28T03:54:22.653Z,11.67
2022-09-28T03:57:11.000Z,11.15
2022-09-28T03:59:59.959Z,11.00
2022-09-28T04:02:49.328Z,11.07
2022-09-28T04:05:40.745Z,10.43
2022-09-28T04:08:30.326Z,12.70
2022-09-28T04:11:19.082Z,13.43
2022-09-28T04:14:07.836Z,14.60
2022-09-28T04:16:56.807Z,14.87
2022-09-28T04:19:47.446Z,15.47
2022-09-28T04:23:05.634Z,16.30
2022-09-28T04:25:54.594Z,14.47
2022-09-28T04:29:16.682Z,14.50
2022-09-28T04:32:16.953Z,15.83
2022-09-28T04:35:09.302Z,16.37
2022-09-28T04:37:57.945Z,16.93
2022-09-28T04:40:49.770Z,17.63
2022-09-28T04:43:39.145Z,19.10
2022-09-28T04:46:28.308Z,18.47
2022-09-28T04:49:48.822Z,16.67
2022-09-28T04:52:47.189Z,17.27
2022-09-28T04:55:36.552Z,16.60
2022-09-28T04:58:25.722Z,16.60
2022-09-28T05:05:34.569Z,15.67
2022-09-28T05:08:39.295Z,15.37
2022-09-28T05:11:28.261Z,16.87
2022-09-28T05:14:17.216Z,15.87
2022-09-28T05:17:05.973Z,17.37
2022-09-28T05:20:20.328Z,16.57
2022-09-28T05:23:12.478Z,17.13
2022-09-28T05:26:04.391Z,16.77
2022-09-28T05:28:53.352Z,16.00
2022-09-28T05:32:01.903Z,15.90
2022-09-28T05:35:10.943Z,17.33
2022-09-28T05:38:05.647Z,18.57
2022-09-28T05:40:55.560Z,17.82
2022-09-28T05:43:45.253Z,20.43
2022-09-28T05:46:34.615Z,18.90
2022-09-28T05:49:23.582Z,17.80
2022-09-28T05:52:12.338Z,17.53
2022-09-28T05:55:02.526Z,16.67
2022-09-28T05:57:53.125Z,16.30
2022-09-28T06:00:42.288Z,15.90
2022-09-28T06:03:31.664Z,14.60
2022-09-28T06:06:21.435Z,12.63
2022-09-28T06:09:10.805Z,13.80
2022-09-28T06:12:00.938Z,14.87
2022-09-28T06:15:03.262Z,12.93
2022-09-28T06:17:58.160Z,12.70
2022-09-28T06:21:25.626Z,12.10
2022-09-28T06:24:15.040Z,11.33
2022-09-28T06:27:03.748Z,11.07
2022-09-28T06:29:53.119Z,11.07
2022-09-28T06:32:43.511Z,12.40
2022-09-28T06:35:33.293Z,14.47
2022-09-28T06:38:21.827Z,13.20
2022-09-28T06:41:12.142Z,13.05
2022-09-28T06:44:03.460Z,13.27
2022-09-28T06:47:12.067Z,12.53
2022-09-28T06:50:28.978Z,11.27
2022-09-28T06:53:38.935Z,11.30
2022-09-28T06:56:56.977Z,11.20
2022-09-28T06:59:45.525Z,10.33
2022-09-28T07:02:33.918Z,11.40
2022-09-28T07:05:52.132Z,11.83
2022-09-28T07:09:31.819Z,12.20
2022-09-28T07:12:42.748Z,10.10
2022-09-28T07:15:45.424Z,11.10
2022-09-28T07:18:36.639Z,11.37
2022-09-28T07:21:30.213Z,9.77
2022-09-28T07:24:24.767Z,9.40
2022-09-28T07:30:44.251Z,8.57
2022-09-28T07:33:53.525Z,8.83
2022-09-28T07:36:59.188Z,8.20
2022-09-28T07:40:07.285Z,7.30
2022-09-28T07:43:05.192Z,5.77
2022-09-28T07:45:55.271Z,4.60
2022-09-28T07:48:45.429Z,4.47
2022-09-28T07:51:56.097Z,3.97
2022-09-28T07:54:44.644Z,3.40
2022-09-28T07:57:47.737Z,3.42
2022-09-28T08:03:38.745Z,2.93
2022-09-28T08:06:27.315Z,2.77
2022-09-28T08:09:16.317Z,2.40
2022-09-28T08:12:23.871Z,2.90
2022-09-28T08:15:36.497Z,2.33
2022-09-28T08:18:43.160Z,2.57
2022-09-28T08:21:44.900Z,2.70
2022-09-28T08:24:33.368Z,3.00
2022-09-28T08:27:22.535Z,3.53
2022-09-28T08:30:12.810Z,3.40
2022-09-28T08:33:28.131Z,2.90
2022-09-28T08:36:36.312Z,2.93
2022-09-28T08:39:47.954Z,2.73
2022-09-28T08:43:01.745Z,2.23
2022-09-28T08:46:12.652Z,2.60
2022-09-28T08:49:38.150Z,3.00
2022-09-28T08:52:39.822Z,2.70
2022-09-28T08:55:49.130Z,2.87
2022-09-28T08:58:43.624Z,2.80
2022-09-28T09:01:39.130Z,2.40
2022-09-28T09:04:33.416Z,2.47
2022-09-28T09:08:08.808Z,2.70
2022-09-28T09:11:09.295Z,2.43
2022-09-28T09:14:21.627Z,2.33
2022-09-28T09:17:23.260Z,2.50
2022-09-28T09:20:47.654Z,2.60
2022-09-28T09:23:54.557Z,2.13
2022-09-28T09:26:43.592Z,2.40
2022-09-28T09:29:46.032Z,2.33
2022-09-28T09:33:12.921Z,2.62
2022-09-28T09:36:34.854Z,2.27
2022-09-28T09:40:22.808Z,2.27
2022-09-28T09:43:43.182Z,2.17
2022-09-28T09:47:08.277Z,2.10
2022-09-28T09:50:29.615Z,2.30
2022-09-28T09:53:26.191Z,2.00
2022-09-28T09:56:19.218Z,2.27
2022-09-28T09:59:39.918Z,2.20
2022-09-28T10:02:42.367Z,2.30
2022-09-28T10:05:44.406Z,2.23
2022-09-28T10:08:47.754Z,2.17
2022-09-28T10:11:41.388Z,2.00
2022-09-28T10:14:30.797Z,2.33
2022-09-28T10:17:29.402Z,1.83
2022-09-28T10:20:39.941Z,2.00
2022-09-28T10:23:45.359Z,2.10
2022-09-28T10:26:39.089Z,2.00
2022-09-28T10:29:35.731Z,1.90
2022-09-28T10:32:26.610Z,1.53
2022-09-28T10:35:27.091Z,1.80
2022-09-28T10:38:21.940Z,1.83
2022-09-28T10:41:18.704Z,1.60
2022-09-28T10:44:20.135Z,1.90
2022-09-28T10:47:28.275Z,1.60
2022-09-28T10:50:22.585Z,1.90
2022-09-28T10:53:19.874Z,1.67
2022-09-28T10:56:29.220Z,2.27
2022-09-28T10:59:37.564Z,1.70
2022-09-28T11:02:45.694Z,1.80
2022-09-28T11:05:43.410Z,1.80
2022-09-28T11:08:38.439Z,1.50
2022-09-28T11:11:29.526Z,1.53
2022-09-28T11:14:30.916Z,1.40
2022-09-28T11:17:27.555Z,1.47
2022-09-28T11:20:35.264Z,1.47
2022-09-28T11:23:30.531Z,1.67
2022-09-28T11:26:24.507Z,1.77
2022-09-28T11:29:26.484Z,1.55
2022-09-28T11:32:44.711Z,1.60
2022-09-28T11:35:46.877Z,1.53
2022-09-28T11:38:46.871Z,1.70
2022-09-28T11:41:59.782Z,1.60
2022-09-28T11:44:55.960Z,1.60
2022-09-28T11:47:52.867Z,1.60
2022-09-28T11:50:50.384Z,1.60
2022-09-28T11:53:43.906Z,1.50
2022-09-28T11:56:38.187Z,1.50
2022-09-28T11:59:32.065Z,1.40
2022-09-28T12:02:26.278Z,1.20
2022-09-28T12:05:30.494Z,1.50
2022-09-28T12:08:24.953Z,1.33
2022-09-28T12:11:33.141Z,1.50
2022-09-28T12:14:40.961Z,1.50
2022-09-28T12:17:34.990Z,1.40
2022-09-28T12:20:27.025Z,1.43
2022-09-28T12:23:18.478Z,1.60
2022-09-28T12:29:06.486Z,1.50
2022-09-28T12:32:02.747Z,1.40
2022-09-28T12:34:51.764Z,1.20
2022-09-28T12:37:54.685Z,1.43
2022-09-28T12:40:52.976Z,1.17
2022-09-28T12:44:12.612Z,1.30
2022-09-28T12:47:22.357Z,2.40
2022-09-28T12:50:41.576Z,3.77
2022-09-28T12:56:45.100Z,1.67
2022-09-28T12:59:38.360Z,1.80
2022-09-28T13:02:51.984Z,2.03
2022-09-28T13:06:16.335Z,1.47
2022-09-28T13:09:16.155Z,1.70
2022-09-28T13:12:20.879Z,1.60
2022-09-28T13:15:29.509Z,1.57
2022-09-28T13:18:28.012Z,2.07
2022-09-28T13:21:28.318Z,1.50
2022-09-28T13:24:34.098Z,1.50
2022-09-28T13:27:29.785Z,1.40
2022-09-28T13:30:19.361Z,1.70
2022-09-28T13:33:16.642Z,1.43
2022-09-28T13:36:26.769Z,1.33
2022-09-28T13:39:51.469Z,1.70
2022-09-28T13:43:10.021Z,1.60
2022-09-28T13:46:09.063Z,1.40
2022-09-28T13:49:06.577Z,1.70
2022-09-28T13:52:06.736Z,1.63
2022-09-28T13:55:12.555Z,2.03
2022-09-28T13:58:06.562Z,1.80
2022-09-28T14:01:02.389Z,1.77
2022-09-28T14:04:11.402Z,1.80
2022-09-28T14:07:11.427Z,1.70
2022-09-28T14:10:40.301Z,1.40
2022-09-28T14:14:00.798Z,1.30
2022-09-28T14:16:52.371Z,1.67
2022-09-28T14:19:43.253Z,1.90
2022-09-28T14:22:43.196Z,1.63
2022-09-28T14:25:35.446Z,1.30
2022-09-28T14:28:40.787Z,1.87
2022-09-28T14:31:32.037Z,1.77
2022-09-28T14:34:33.620Z,1.50
2022-09-28T14:37:47.028Z,1.70
2022-09-28T14:41:14.901Z,1.70
2022-09-28T14:44:08.723Z,1.70
2022-09-28T14:47:32.351Z,1.83
2022-09-28T14:50:25.521Z,1.30
2022-09-28T14:53:19.134Z,1.50
2022-09-28T14:56:09.668Z,1.50
2022-09-28T14:58:59.002Z,1.60
2022-09-28T15:01:51.479Z,1.60
2022-09-28T15:04:44.290Z,1.50
2022-09-28T15:07:47.585Z,2.30
2022-09-28T15:10:41.534Z,1.80
2022-09-28T15:13:31.659Z,1.93
2022-09-28T15:16:24.330Z,1.70
2022-09-28T15:19:23.578Z,2.30
2022-09-28T15:22:18.032Z,1.83
2022-09-28T15:25:15.301Z,1.73
2022-09-28T15:28:18.272Z,2.17
2022-09-28T15:31:07.246Z,2.23
2022-09-28T15:34:14.483Z,2.40
2022-09-28T15:37:08.706Z,2.55
2022-09-28T15:39:59.057Z,2.30
2022-09-28T15:42:48.265Z,2.60
2022-09-28T15:45:40.079Z,2.27
2022-09-28T15:48:36.241Z,2.62
2022-09-28T15:51:26.915Z,2.77
2022-09-28T15:54:18.838Z,2.20
2022-09-28T15:57:28.492Z,2.33
2022-09-28T16:00:29.951Z,2.83
2022-09-28T16:03:28.129Z,2.53
2022-09-28T16:06:17.083Z,2.50
2022-09-28T16:09:25.503Z,2.47
2022-09-28T16:12:14.255Z,2.80
2022-09-28T16:15:12.432Z,3.13
2022-09-28T16:18:04.231Z,2.93
2022-09-28T16:20:54.426Z,2.67
2022-09-28T16:23:50.370Z,2.40
2022-09-28T16:26:39.936Z,2.33
2022-09-28T16:29:35.712Z,2.40
2022-09-28T16:32:41.008Z,2.80
2022-09-28T16:35:32.609Z,2.90
2022-09-28T16:38:22.000Z,2.70
2022-09-28T16:41:11.576Z,2.77
2022-09-28T16:44:02.124Z,2.60
2022-09-28T16:46:54.504Z,3.20
2022-09-28T16:49:42.961Z,4.12
2022-09-28T16:52:46.087Z,5.50
2022-09-28T16:55:40.717Z,5.10
2022-09-28T16:58:30.936Z,4.97
2022-09-28T17:01:21.592Z,5.83
2022-09-28T17:04:11.635Z,5.27
2022-09-28T17:06:59.865Z,5.63
2022-09-28T17:09:49.028Z,6.23
2022-09-28T17:12:37.988Z,6.00
2022-09-28T17:15:26.811Z,6.33
2022-09-28T17:18:17.341Z,5.57
2022-09-28T17:21:11.270Z,6.07
2022-09-28T17:24:00.381Z,6.43
2022-09-28T17:26:51.123Z,6.50
2022-09-28T17:29:39.528Z,6.95
2022-09-28T17:32:28.082Z,6.60
2022-09-28T17:35:26.036Z,6.30
2022-09-28T17:38:16.198Z,5.73
2022-09-28T17:41:04.775Z,6.03
2022-09-28T17:43:53.141Z,6.93
2022-09-28T17:46:47.003Z,6.70
2022-09-28T17:49:35.562Z,6.80
2022-09-28T17:52:24.113Z,6.10
2022-09-28T17:55:13.071Z,6.20
2022-09-28T17:58:03.810Z,6.67
2022-09-28T18:00:52.833Z,6.00
2022-09-28T18:03:42.002Z,5.80
2022-09-28T18:06:32.190Z,5.67
2022-09-28T18:09:24.548Z,6.30
2022-09-28T18:12:13.592Z,6.10
2022-09-28T18:15:02.364Z,6.80
2022-09-28T18:17:51.512Z,7.73
2022-09-28T18:20:41.701Z,6.60
2022-09-28T18:23:31.070Z,5.73
2022-09-28T18:26:19.675Z,6.10
2022-09-28T18:29:08.375Z,5.80
2022-09-28T18:31:56.926Z,7.10
2022-09-28T18:34:45.884Z,6.03
2022-09-28T18:37:39.481Z,7.33
2022-09-28T18:40:28.938Z,7.80
2022-09-28T18:43:17.884Z,7.40
2022-09-28T18:46:11.482Z,7.50
2022-09-28T18:49:00.104Z,6.40
2022-09-28T18:51:49.069Z,7.30
2022-09-28T18:54:38.554Z,6.87
2022-09-28T18:57:28.006Z,6.60
2022-09-28T19:00:17.380Z,7.07
2022-09-28T19:03:10.395Z,7.65
2022-09-28T19:05:59.191Z,6.42
2022-09-28T19:08:53.816Z,6.90
2022-09-28T19:11:41.873Z,6.80
2022-09-28T19:14:30.575Z,6.60
2022-09-28T19:17:19.738Z,7.00
2022-09-28T19:20:10.137Z,6.80
2022-09-28T19:22:59.329Z,7.97
2022-09-28T19:25:47.851Z,6.73
2022-09-28T19:28:36.808Z,5.87
2022-09-28T19:31:27.208Z,6.07
2022-09-28T19:34:17.319Z,6.40
2022-09-28T19:37:06.559Z,6.17
2022-09-28T19:39:56.133Z,6.67
2022-09-28T19:42:44.885Z,6.80
2022-09-28T19:45:37.532Z,6.07
2022-09-28T19:48:28.336Z,5.43
2022-09-28T19:51:17.089Z,5.67
2022-09-28T19:54:07.053Z,5.83
2022-09-28T19:56:56.034Z,5.07
2022-09-28T19:59:46.664Z,5.53
2022-09-28T20:02:40.762Z,5.70
2022-09-28T20:05:29.467Z,5.70
2022-09-28T20:08:21.423Z,6.07
2022-09-28T20:11:10.028Z,6.25
2022-09-28T20:13:59.749Z,6.20
2022-09-28T20:16:48.179Z,5.83
2022-09-28T20:19:37.770Z,5.83
2022-09-28T20:22:26.508Z,6.03
2022-09-28T20:25:15.672Z,5.70
2022-09-28T20:28:06.208Z,5.80
2022-09-28T20:30:56.725Z,6.27
2022-09-28T20:33:45.215Z,5.80
2022-09-28T20:36:34.889Z,5.73
2022-09-28T20:39:23.745Z,6.10
2022-09-28T20:42:15.189Z,6.67
2022-09-28T20:45:03.713Z,5.97
2022-09-28T20:47:52.265Z,5.87
2022-09-28T20:50:42.248Z,5.73
2022-09-28T20:53:31.210Z,5.37
2022-09-28T20:56:22.045Z,5.80
2022-09-28T20:59:13.052Z,5.23
2022-09-28T21:02:02.088Z,6.13
2022-09-28T21:04:51.349Z,6.03
2022-09-28T21:07:40.307Z,5.87
2022-09-28T21:10:29.883Z,5.33
2022-09-28T21:13:19.046Z,5.90
2022-09-28T21:16:09.789Z,5.93
2022-09-28T21:18:59.834Z,6.40
2022-09-28T21:21:48.558Z,6.13
2022-09-28T21:24:37.958Z,5.97
2022-09-28T21:27:26.510Z,6.17
2022-09-28T21:30:19.504Z,6.37
2022-09-28T21:33:08.527Z,7.03
2022-09-28T21:36:00.415Z,8.00
2022-09-28T21:38:48.905Z,7.75
2022-09-28T21:41:38.270Z,8.10
2022-09-28T21:44:26.617Z,8.60
2022-09-28T21:47:15.370Z,8.03
2022-09-28T21:50:06.294Z,8.03
2022-09-28T21:52:56.609Z,7.57
2022-09-28T21:55:46.143Z,8.47
2022-09-28T21:58:35.917Z,7.47
2022-09-28T22:01:26.394Z,7.53
2022-09-28T22:04:16.389Z,7.57
2022-09-28T22:07:05.259Z,6.80
2022-09-28T22:09:54.423Z,7.33
2022-09-28T22:12:42.975Z,6.43
2022-09-28T22:15:32.551Z,6.77
2022-09-28T22:18:21.300Z,6.90
2022-09-28T22:21:13.512Z,6.73
2022-09-28T22:26:51.274Z,6.67
2022-09-28T22:29:39.803Z,7.40
2022-09-28T22:32:29.138Z,7.40
2022-09-28T22:35:17.924Z,7.70
2022-09-28T22:38:06.890Z,6.67
2022-09-28T22:40:57.062Z,6.65
2022-09-28T22:43:46.881Z,6.40
2022-09-28T22:46:35.973Z,7.47
2022-09-28T22:49:26.005Z,6.47
2022-09-28T22:52:14.556Z,6.90
2022-09-28T22:55:03.924Z,6.80
2022-09-28T22:57:52.475Z,7.07
2022-09-28T23:00:42.635Z,6.73
2022-09-28T23:03:31.212Z,6.83
2022-09-28T23:06:21.608Z,6.73
2022-09-28T23:09:09.934Z,7.00
2022-09-28T23:11:59.936Z,6.93
2022-09-28T23:14:48.484Z,7.73
2022-09-28T23:17:38.058Z,7.63
2022-09-28T23:20:27.020Z,7.13
2022-09-28T23:23:16.390Z,6.77
2022-09-28T23:26:13.278Z,6.83
2022-09-28T23:29:02.098Z,7.70
2022-09-28T23:31:50.640Z,6.87
2022-09-28T23:34:39.808Z,7.03
2022-09-28T23:37:28.564Z,6.50
2022-09-28T23:40:17.568Z,6.70
2022-09-28T23:43:07.098Z,6.40
2022-09-28T23:45:56.055Z,6.13
2022-09-28T23:48:44.813Z,6.13
2022-09-28T23:51:33.362Z,6.60
2022-09-28T23:54:22.537Z,7.17
2022-09-28T23:57:11.499Z,7.60
2022-09-28T23:59:59.832Z,6.70
